createdAt,value
2022-08-05T00:00:53.533Z,7.03
2022-08-05T00:03:19.941Z,7.97
2022-08-05T00:06:05.447Z,5.18
2022-08-05T00:08:35.574Z,6.18
2022-08-05T00:11:03.811Z,6.95
2022-08-05T00:13:38.829Z,4.88
2022-08-05T00:16:08.443Z,6.97
2022-08-05T00:18:35.146Z,6.18
2022-08-05T00:21:01.541Z,5.97
2022-08-05T00:23:44.406Z,5.38
2022-08-05T00:26:14.112Z,5.72
2022-08-05T00:28:42.847Z,6.43
2022-08-05T00:31:12.339Z,5.93
2022-08-05T00:34:55.794Z,9.20
2022-08-05T00:37:10.630Z,7.40
2022-08-05T00:39:13.649Z,8.35
2022-08-05T00:41:52.085Z,5.30
2022-08-05T00:44:23.222Z,6.63
2022-08-05T00:47:04.257Z,5.85
2022-08-05T00:49:44.370Z,7.13
2022-08-05T00:52:18.093Z,7.43
2022-08-05T00:54:54.559Z,6.18
2022-08-05T00:57:23.086Z,6.72
2022-08-05T00:59:52.250Z,17.27
2022-08-05T01:02:18.657Z,10.10
2022-08-05T01:04:45.111Z,15.20
2022-08-05T01:07:17.948Z,26.08
2022-08-05T01:09:44.790Z,43.63
2022-08-05T01:12:18.813Z,40.85
2022-08-05T01:14:50.289Z,39.70
2022-08-05T01:17:25.832Z,34.30
2022-08-05T01:20:00.913Z,32.65
2022-08-05T01:22:47.056Z,27.45
2022-08-05T01:25:22.799Z,19.02
2022-08-05T01:27:55.810Z,15.20
2022-08-05T01:30:34.597Z,15.48
2022-08-05T01:33:03.633Z,12.52
2022-08-05T01:35:51.680Z,12.68
2022-08-05T01:38:27.291Z,8.57
2022-08-05T01:40:58.162Z,14.02
2022-08-05T01:43:25.242Z,8.40
2022-08-05T01:45:56.292Z,10.85
2022-08-05T01:48:23.680Z,8.20
2022-08-05T01:50:51.490Z,9.43
2022-08-05T01:53:54.407Z,9.88
2022-08-05T01:56:09.312Z,8.57
2022-08-05T01:58:44.651Z,7.28
2022-08-05T02:01:17.730Z,6.72
2022-08-05T02:03:52.014Z,8.13
2022-08-05T02:06:37.728Z,9.88
2022-08-05T02:09:05.734Z,9.60
2022-08-05T02:11:41.992Z,6.35
2022-08-05T02:14:13.012Z,8.88
2022-08-05T02:16:52.310Z,8.07
2022-08-05T02:19:35.593Z,9.67
2022-08-05T02:22:25.849Z,9.38
2022-08-05T02:24:57.214Z,9.60
2022-08-05T02:27:30.198Z,9.15
2022-08-05T02:30:13.224Z,8.13
2022-08-05T02:32:46.368Z,12.55
2022-08-05T02:35:18.992Z,10.77
2022-08-05T02:37:53.802Z,9.43
2022-08-05T02:40:21.533Z,7.97
2022-08-05T02:42:52.630Z,11.43
2022-08-05T02:45:21.333Z,7.07
2022-08-05T02:48:06.999Z,8.77
2022-08-05T02:50:43.695Z,8.10
2022-08-05T02:53:11.978Z,11.07
2022-08-05T02:55:54.114Z,7.78
2022-08-05T02:58:27.368Z,7.10
2022-08-05T03:00:59.082Z,7.25
2022-08-05T03:03:26.671Z,7.72
2022-08-05T03:06:56.392Z,7.07
2022-08-05T03:08:47.680Z,9.57
2022-08-05T03:11:55.142Z,7.20
2022-08-05T03:14:04.978Z,6.57
2022-08-05T03:16:35.757Z,10.40
2022-08-05T03:19:06.490Z,7.60
2022-08-05T03:21:41.713Z,9.43
2022-08-05T03:24:17.309Z,9.10
2022-08-05T03:26:43.707Z,6.47
2022-08-05T03:29:17.251Z,8.07
2022-08-05T03:31:55.543Z,9.02
2022-08-05T03:34:24.361Z,7.82
2022-08-05T03:36:50.918Z,8.60
2022-08-05T03:39:20.280Z,4.82
2022-08-05T03:41:53.847Z,9.82
2022-08-05T03:44:22.893Z,5.80
2022-08-05T03:46:49.385Z,6.28
2022-08-05T03:49:15.818Z,6.43
2022-08-05T03:52:37.089Z,8.75
2022-08-05T03:55:00.288Z,5.90
